Time,TemperatureF,DewpointF,PressureIn,WindDirection,WindDirectionDegrees,WindSpeedMPH,WindSpeedGustMPH,Humidity,HourlyPrecipIn,Conditions,Clouds,dailyrainin,SoftwareType,DateUTC
2013-08-23 00:21:00,71.0,50.0,30.49,West,270,0.0,0.0,47,-99.99,,,-99.99,,2013-08-23 07:21:00,
2013-08-23 00:52:00,70.0,50.0,30.50,West,270,0.0,0.0,49,-99.99,,,-99.99,,2013-08-23 07:52:00,
2013-08-23 01:12:00,69.0,50.0,30.50,West,270,0.0,0.0,50,-99.99,,,-99.99,,2013-08-23 08:12:00,
2013-08-23 01:22:00,69.0,50.0,30.50,West,270,0.0,0.0,50,-99.99,,,-99.99,,2013-08-23 08:22:00,
2013-08-23 01:52:00,67.0,50.0,30.50,West,270,0.0,0.0,55,-99.99,,,-99.99,,2013-08-23 08:52:00,
2013-08-23 02:21:00,65.0,49.0,30.50,West,270,0.0,0.0,57,-99.99,,,-99.99,,2013-08-23 09:21:00,
2013-08-23 02:53:00,64.0,50.0,30.50,West,270,0.0,0.0,61,-99.99,,,-99.99,,2013-08-23 09:53:00,
2013-08-23 03:22:00,63.0,51.0,30.50,West,270,0.0,0.0,65,-99.99,,,-99.99,,2013-08-23 10:22:00,
2013-08-23 03:52:00,62.0,51.0,30.51,West,270,0.0,0.0,68,-99.99,,,-99.99,,2013-08-23 10:52:00,
2013-08-23 04:11:00,61.0,51.0,30.51,West,270,0.0,0.0,70,-99.99,,,-99.99,,2013-08-23 11:11:00,
2013-08-23 04:22:00,61.0,51.0,30.51,West,270,0.0,0.0,70,-99.99,,,-99.99,,2013-08-23 11:22:00,
2013-08-23 04:53:00,61.0,52.0,30.50,West,270,0.0,0.0,72,-99.99,,,-99.99,,2013-08-23 11:53:00,
2013-08-23 05:21:00,61.0,52.0,30.50,West,270,0.0,0.0,73,-99.99,,,-99.99,,2013-08-23 12:21:00,
2013-08-23 05:52:00,60.0,52.0,30.50,West,270,0.0,0.0,75,-99.99,,,-99.99,,2013-08-23 12:52:00,
2013-08-23 06:22:00,61.0,54.0,30.51,West,270,0.0,0.0,77,-99.99,,,-99.99,,2013-08-23 13:22:00,
2013-08-23 06:52:00,61.0,53.0,30.50,West,270,0.0,0.0,76,-99.99,,,-99.99,,2013-08-23 13:52:00,
2013-08-23 07:21:00,61.0,55.0,30.50,West,270,0.0,0.0,80,-99.99,,,-99.99,,2013-08-23 14:21:00,
2013-08-23 07:52:00,61.0,53.0,30.51,West,270,0.0,0.0,76,-99.99,,,-99.99,,2013-08-23 14:52:00,
2013-08-23 08:21:00,61.0,54.0,30.51,West,270,0.0,0.0,78,-99.99,,,-99.99,,2013-08-23 15:21:00,
2013-08-23 08:54:00,62.0,54.0,30.51,West,270,0.0,0.0,74,-99.99,,,-99.99,,2013-08-23 15:54:00,
2013-08-23 09:24:00,63.0,55.0,30.51,West,270,0.0,0.0,75,-99.99,,,-99.99,,2013-08-23 16:24:00,
2013-08-23 09:53:00,64.0,54.0,30.52,West,270,0.0,0.0,71,-99.99,,,-99.99,,2013-08-23 16:53:00,
2013-08-23 10:12:00,64.0,54.0,30.53,West,270,0.0,0.0,69,-99.99,,,-99.99,,2013-08-23 17:12:00,
2013-08-23 10:23:00,64.0,54.0,30.53,West,270,0.0,0.0,69,-99.99,,,-99.99,,2013-08-23 17:23:00,
2013-08-23 10:53:00,67.0,55.0,30.53,West,270,0.0,0.0,65,-99.99,,,-99.99,,2013-08-23 17:53:00,
2013-08-23 11:22:00,68.0,56.0,30.53,West,270,0.0,0.0,65,-99.99,,,-99.99,,2013-08-23 18:22:00,
2013-08-23 11:52:00,69.0,55.0,30.53,West,270,0.0,0.0,61,-99.99,,,-99.99,,2013-08-23 18:52:00,
2013-08-23 12:21:00,69.0,55.0,30.54,West,270,0.0,0.0,60,-99.99,,,-99.99,,2013-08-23 19:21:00,
2013-08-23 12:42:00,69.0,54.0,30.54,West,270,0.0,0.0,59,-99.99,,,-99.99,,2013-08-23 19:42:00,
2013-08-23 12:52:00,70.0,55.0,30.54,West,270,0.0,0.0,60,-99.99,,,-99.99,,2013-08-23 19:52:00,
2013-08-23 13:22:00,72.0,55.0,30.54,West,270,0.0,0.0,56,-99.99,,,-99.99,,2013-08-23 20:22:00,
2013-08-23 14:54:00,76.0,57.0,30.53,West,270,0.0,0.0,51,-99.99,,,-99.99,,2013-08-23 21:54:00,
2013-08-23 15:24:00,75.0,56.0,30.54,West,270,0.0,0.0,51,-99.99,,,-99.99,,2013-08-23 22:24:00,
2013-08-23 15:53:00,76.0,57.0,30.53,West,270,0.0,0.0,51,-99.99,,,-99.99,,2013-08-23 22:53:00,
2013-08-23 16:54:00,75.0,55.0,30.54,West,270,0.0,0.0,50,-99.99,,,-99.99,,2013-08-23 23:54:00,
2013-08-23 17:21:00,75.0,54.0,30.53,West,270,0.0,0.0,48,-99.99,,,-99.99,,2013-08-24 00:21:00,
2013-08-23 17:52:00,75.0,54.0,30.52,West,270,0.0,0.0,48,-99.99,,,-99.99,,2013-08-24 00:52:00,
2013-08-23 18:22:00,77.0,56.0,30.52,West,270,0.0,0.0,49,-99.99,,,-99.99,,2013-08-24 01:22:00,
2013-08-23 19:11:00,76.0,53.0,30.52,West,270,0.0,0.0,45,-99.99,,,-99.99,,2013-08-24 02:11:00,
2013-08-23 19:22:00,76.0,53.0,30.52,West,270,0.0,0.0,45,-99.99,,,-99.99,,2013-08-24 02:22:00,
2013-08-23 19:42:00,73.0,52.0,30.51,West,270,0.0,0.0,47,-99.99,,,-99.99,,2013-08-24 02:42:00,
2013-08-23 19:52:00,70.0,50.0,30.52,West,270,0.0,0.0,50,-99.99,,,-99.99,,2013-08-24 02:52:00,
2013-08-23 20:22:00,68.0,50.0,30.51,West,270,0.0,0.0,53,-99.99,,,-99.99,,2013-08-24 03:22:00,
2013-08-23 20:54:00,66.0,50.0,30.52,West,270,0.0,0.0,57,-99.99,,,-99.99,,2013-08-24 03:54:00,
2013-08-23 21:24:00,65.0,51.0,30.53,West,270,0.0,0.0,61,-99.99,,,-99.99,,2013-08-24 04:24:00,
2013-08-23 21:53:00,65.0,52.0,30.53,West,270,0.0,0.0,63,-99.99,,,-99.99,,2013-08-24 04:53:00,
2013-08-23 22:23:00,64.0,52.0,30.53,West,270,0.0,0.0,64,-99.99,,,-99.99,,2013-08-24 05:23:00,
2013-08-23 22:53:00,64.0,52.0,30.53,West,270,0.0,0.0,66,-99.99,,,-99.99,,2013-08-24 05:53:00,
2013-08-23 23:21:00,63.0,52.0,30.53,West,270,0.0,0.0,68,-99.99,,,-99.99,,2013-08-24 06:21:00,
2013-08-23 23:52:00,62.0,52.0,30.53,West,270,0.0,0.0,70,-99.99,,,-99.99,,2013-08-24 06:52:00,